createdAt,value
2017-03-22T00:00:28.228Z,22.12
2017-03-22T00:01:27.698Z,22.14
2017-03-22T00:02:28.342Z,22.1
2017-03-22T00:03:27.751Z,22.1
2017-03-22T00:04:28.404Z,22.12
2017-03-22T00:05:28.060Z,22.09
2017-03-22T00:06:28.448Z,22.09
2017-03-22T00:07:27.854Z,22.07
2017-03-22T00:08:27.887Z,22.06
2017-03-22T00:09:28.531Z,22.1
2017-03-22T00:10:28.203Z,22.05
2017-03-22T00:11:28.273Z,22
2017-03-22T00:12:28.301Z,22.05
2017-03-22T00:13:28.337Z,22.07
2017-03-22T00:14:28.669Z,22.07
2017-03-22T00:15:28.664Z,22.03
2017-03-22T00:16:28.712Z,22.03
2017-03-22T00:17:28.439Z,22.09
2017-03-22T00:18:28.154Z,22.12
2017-03-22T00:19:28.494Z,22.06
2017-03-22T00:20:29.087Z,22.05
2017-03-22T00:21:28.853Z,22.03
2017-03-22T00:22:28.573Z,22.1
2017-03-22T00:23:28.290Z,22.05
2017-03-22T00:24:28.323Z,22.1
2017-03-22T00:25:28.655Z,22.1
2017-03-22T00:26:28.680Z,22.02
2017-03-22T00:27:28.705Z,22.09
2017-03-22T00:28:28.434Z,22.02
2017-03-22T00:29:28.449Z,21.99
2017-03-22T00:30:28.795Z,22.02
2017-03-22T00:31:29.127Z,21.86
2017-03-22T00:32:28.853Z,22.03
2017-03-22T00:33:28.562Z,21.9
2017-03-22T00:34:28.902Z,21.88
2017-03-22T00:35:28.922Z,21.91
2017-03-22T00:36:28.636Z,21.94
2017-03-22T00:37:28.668Z,21.96
2017-03-22T00:38:29.009Z,21.96
2017-03-22T00:39:29.042Z,21.96
2017-03-22T00:40:29.373Z,21.92
2017-03-22T00:41:29.098Z,21.94
2017-03-22T00:42:28.803Z,21.8
2017-03-22T00:43:28.828Z,21.9
2017-03-22T00:44:29.178Z,21.82
2017-03-22T00:45:29.207Z,21.8
2017-03-22T00:46:29.219Z,21.84
2017-03-22T00:47:29.260Z,21.91
2017-03-22T00:48:28.969Z,21.77
2017-03-22T00:49:29.305Z,21.83
2017-03-22T00:50:29.334Z,21.91
2017-03-22T00:51:29.046Z,21.92
2017-03-22T00:52:29.379Z,21.9
2017-03-22T00:53:29.732Z,21.91
2017-03-22T00:54:29.465Z,21.84
2017-03-22T00:55:29.158Z,21.83
2017-03-22T00:56:29.185Z,21.88
2017-03-22T00:57:29.517Z,21.91
2017-03-22T00:58:29.257Z,21.88
2017-03-22T00:59:29.576Z,21.83
2017-03-22T01:00:29.294Z,21.8
2017-03-22T01:01:29.624Z,21.88
2017-03-22T01:02:29.344Z,21.79
2017-03-22T01:03:29.703Z,21.77
2017-03-22T01:04:29.712Z,21.75
2017-03-22T01:05:29.736Z,21.79
2017-03-22T01:06:29.766Z,21.82
2017-03-22T01:07:30.116Z,21.77
2017-03-22T01:08:30.141Z,21.71
2017-03-22T01:09:29.540Z,21.72
2017-03-22T01:10:29.562Z,21.74
2017-03-22T01:11:29.905Z,21.74
2017-03-22T01:12:29.622Z,21.74
2017-03-22T01:13:29.639Z,21.69
2017-03-22T01:14:29.992Z,21.74
2017-03-22T01:15:30.013Z,21.75
2017-03-22T01:16:29.718Z,21.74
2017-03-22T01:17:30.065Z,21.69
2017-03-22T01:18:30.418Z,21.69
2017-03-22T01:19:30.433Z,21.68
2017-03-22T01:20:30.145Z,21.67
2017-03-22T01:21:30.173Z,21.71
2017-03-22T01:22:29.885Z,21.65
2017-03-22T01:23:30.223Z,21.68
2017-03-22T01:24:30.251Z,21.69
2017-03-22T01:25:30.288Z,21.64
2017-03-22T01:26:30.305Z,21.52
2017-03-22T01:27:30.645Z,21.53
2017-03-22T01:28:30.681Z,21.68
2017-03-22T01:29:30.703Z,21.71
2017-03-22T01:30:30.411Z,21.56
2017-03-22T01:31:30.129Z,21.58
2017-03-22T01:32:30.787Z,21.59
2017-03-22T01:33:30.806Z,21.67
2017-03-22T01:34:30.834Z,21.67
2017-03-22T01:35:30.235Z,21.64
2017-03-22T01:36:31.143Z,21.61
2017-03-22T01:37:30.601Z,21.59
2017-03-22T01:38:30.634Z,21.59
2017-03-22T01:39:30.967Z,21.59
2017-03-22T01:40:30.996Z,21.61
2017-03-22T01:41:31.268Z,21.58
2017-03-22T01:42:30.736Z,21.58
2017-03-22T01:43:31.074Z,21.58
2017-03-22T01:44:31.098Z,21.53
2017-03-22T01:45:30.815Z,21.56
2017-03-22T01:46:31.403Z,21.54
2017-03-22T01:47:30.875Z,21.49
2017-03-22T01:48:30.905Z,21.52
2017-03-22T01:49:31.244Z,21.56
2017-03-22T01:50:31.261Z,21.59
2017-03-22T01:51:31.233Z,21.52
2017-03-22T01:52:31.347Z,21.56
2017-03-22T01:53:30.721Z,21.56
2017-03-22T01:54:31.357Z,21.52
2017-03-22T01:55:31.402Z,21.59
2017-03-22T01:56:31.050Z,21.46
2017-03-22T01:57:31.452Z,21.46
2017-03-22T01:58:31.477Z,21.54
2017-03-22T01:59:31.505Z,21.44
2017-03-22T02:00:31.534Z,21.5
2017-03-22T02:01:31.500Z,21.53
2017-03-22T02:02:31.591Z,21.49
2017-03-22T02:03:31.309Z,21.5
2017-03-22T02:04:31.330Z,21.46
2017-03-22T02:05:31.353Z,21.47
2017-03-22T02:06:31.638Z,21.46
2017-03-22T02:07:31.407Z,21.44
2017-03-22T02:08:31.761Z,21.46
2017-03-22T02:09:31.457Z,21.42
2017-03-22T02:10:31.493Z,21.46
2017-03-22T02:11:31.762Z,21.46
2017-03-22T02:12:31.868Z,21.47
2017-03-22T02:13:31.576Z,21.46
2017-03-22T02:14:31.593Z,21.4
2017-03-22T02:15:31.617Z,21.46
2017-03-22T02:16:31.901Z,21.4
2017-03-22T02:17:32.003Z,21.44
2017-03-22T02:18:32.024Z,21.4
2017-03-22T02:19:31.420Z,21.46
2017-03-22T02:20:32.067Z,21.42
2017-03-22T02:21:32.038Z,21.44
2017-03-22T02:22:31.815Z,21.46
2017-03-22T02:23:31.856Z,21.42
2017-03-22T02:24:32.180Z,21.38
2017-03-22T02:25:31.888Z,21.4
2017-03-22T02:26:32.176Z,21.37
2017-03-22T02:27:31.949Z,21.38
2017-03-22T02:28:32.291Z,21.32
2017-03-22T02:29:32.312Z,21.34
2017-03-22T02:30:32.023Z,21.37
2017-03-22T02:31:32.305Z,21.34
2017-03-22T02:32:31.766Z,21.34
2017-03-22T02:33:32.420Z,21.44
2017-03-22T02:34:32.446Z,21.44
2017-03-22T02:35:32.471Z,21.42
2017-03-22T02:36:32.749Z,21.35
2017-03-22T02:37:32.525Z,21.38
2017-03-22T02:38:32.243Z,21.29
2017-03-22T02:39:32.575Z,21.34
2017-03-22T02:40:32.292Z,21.35
2017-03-22T02:41:32.636Z,21.35
2017-03-22T02:42:32.657Z,21.27
2017-03-22T02:43:32.378Z,21.29
2017-03-22T02:44:32.710Z,21.31
2017-03-22T02:45:32.110Z,21.32
2017-03-22T02:46:32.135Z,21.32
2017-03-22T02:47:32.172Z,21.31
2017-03-22T02:48:32.198Z,21.31
2017-03-22T02:49:32.535Z,21.32
2017-03-22T02:50:32.563Z,21.21
2017-03-22T02:51:32.580Z,21.35
2017-03-22T02:52:32.924Z,21.34
2017-03-22T02:53:33.014Z,21.31
2017-03-22T02:54:32.981Z,21.22
2017-03-22T02:55:33.006Z,21.24
2017-03-22T02:56:33.027Z,21.21
2017-03-22T02:57:33.065Z,21.32
2017-03-22T02:58:33.086Z,21.28
2017-03-22T02:59:33.110Z,21.28
2017-03-22T03:00:33.143Z,21.21
2017-03-22T03:01:32.855Z,21.24
2017-03-22T03:02:33.133Z,21.22
2017-03-22T03:03:32.606Z,21.25
2017-03-22T03:04:32.938Z,21.29
2017-03-22T03:05:32.647Z,21.12
2017-03-22T03:06:33.299Z,21.27
2017-03-22T03:07:33.261Z,21.27
2017-03-22T03:08:32.729Z,21.14
2017-03-22T03:09:33.382Z,21.28
2017-03-22T03:10:33.097Z,21.28
2017-03-22T03:11:33.120Z,21.17
2017-03-22T03:12:33.713Z,21.28
2017-03-22T03:13:33.485Z,21.19
2017-03-22T03:14:33.201Z,21.19
2017-03-22T03:15:33.544Z,21.22
2017-03-22T03:16:32.943Z,21.14
2017-03-22T03:17:33.528Z,21.21
2017-03-22T03:18:33.629Z,21.17
2017-03-22T03:19:33.337Z,21.22
2017-03-22T03:20:33.042Z,21.17
2017-03-22T03:21:33.697Z,21.27
2017-03-22T03:22:33.662Z,21.22
2017-03-22T03:23:33.756Z,21.17
2017-03-22T03:24:33.780Z,21.09
2017-03-22T03:25:33.179Z,21.17
2017-03-22T03:26:33.515Z,21.14
2017-03-22T03:27:34.107Z,21.17
2017-03-22T03:28:33.896Z,21.14
2017-03-22T03:29:33.912Z,21.17
2017-03-22T03:30:33.940Z,21.19
2017-03-22T03:31:33.694Z,21.17
2017-03-22T03:32:34.238Z,21.17
2017-03-22T03:33:34.020Z,21.17
2017-03-22T03:34:34.049Z,21.13
2017-03-22T03:35:34.083Z,21.16
2017-03-22T03:36:33.478Z,21.13
2017-03-22T03:37:33.749Z,21.1
2017-03-22T03:38:34.148Z,21.13
2017-03-22T03:39:34.180Z,21.13
2017-03-22T03:40:34.206Z,21.16
2017-03-22T03:41:34.238Z,21.16
2017-03-22T03:42:34.510Z,21.13
2017-03-22T03:43:33.991Z,21.16
2017-03-22T03:44:34.307Z,21.07
2017-03-22T03:45:34.349Z,21.13
2017-03-22T03:46:34.053Z,21.07
2017-03-22T03:52:52.611Z,21.06
2017-03-22T03:53:52.631Z,21.09
2017-03-22T03:54:52.675Z,21.12
2017-03-22T03:55:52.689Z,21.09
2017-03-22T03:56:52.417Z,21.06
2017-03-22T03:57:52.998Z,21.09
2017-03-22T03:58:52.823Z,21.07
2017-03-22T03:59:52.487Z,21.04
2017-03-22T04:00:52.827Z,21.07
2017-03-22T04:01:52.868Z,21.01
2017-03-22T04:02:53.169Z,21.04
2017-03-22T04:03:52.906Z,20.99
2017-03-22T04:04:52.628Z,21.09
2017-03-22T04:05:52.655Z,21.03
2017-03-22T04:06:52.988Z,21.07
2017-03-22T04:07:53.266Z,21.06
2017-03-22T04:08:53.060Z,20.99
2017-03-22T04:09:53.069Z,21.06
2017-03-22T04:10:52.780Z,21.01
2017-03-22T04:11:53.127Z,21.1
2017-03-22T04:12:53.093Z,20.98
2017-03-22T04:13:52.859Z,21.09
2017-03-22T04:14:52.887Z,21.07
2017-03-22T04:15:53.233Z,20.95
2017-03-22T04:16:52.944Z,20.99
2017-03-22T04:17:53.549Z,20.99
2017-03-22T04:18:52.990Z,21.03
2017-03-22T04:19:53.015Z,21.03
2017-03-22T04:20:53.359Z,21.03
2017-03-22T04:21:53.093Z,21.04
2017-03-22T04:22:53.665Z,21.04
2017-03-22T04:23:53.122Z,21.07
2017-03-22T04:24:53.154Z,21.04
2017-03-22T04:25:52.866Z,21.04
2017-03-22T04:26:53.515Z,20.95
2017-03-22T04:27:53.492Z,20.98
2017-03-22T04:28:53.577Z,20.97
2017-03-22T04:29:53.294Z,20.99
2017-03-22T04:30:53.626Z,20.95
2017-03-22T04:31:53.647Z,20.95
2017-03-22T04:32:53.927Z,21.04
2017-03-22T04:33:53.405Z,21.06
2017-03-22T04:34:53.730Z,21.04
2017-03-22T04:35:53.762Z,20.95
2017-03-22T04:36:53.475Z,20.98
2017-03-22T04:37:54.074Z,21.01
2017-03-22T04:38:53.836Z,21.04
2017-03-22T04:39:53.866Z,21.01
2017-03-22T04:40:53.902Z,21.1
2017-03-22T04:41:53.598Z,21.03
2017-03-22T04:42:54.192Z,21.04
2017-03-22T04:43:53.660Z,21.06
2017-03-22T04:44:53.997Z,21.06
2017-03-22T04:45:53.710Z,20.99
2017-03-22T04:46:54.050Z,20.91
2017-03-22T04:47:54.015Z,20.95
2017-03-22T04:48:54.104Z,21.06
2017-03-22T04:49:54.137Z,20.97
2017-03-22T04:50:54.158Z,21.06
2017-03-22T04:51:54.185Z,21.04
2017-03-22T04:52:54.463Z,20.98
2017-03-22T04:53:54.236Z,21.04
2017-03-22T04:54:53.945Z,20.98
2017-03-22T04:55:54.289Z,20.98
2017-03-22T04:56:54.326Z,20.94
2017-03-22T04:57:54.590Z,20.99
2017-03-22T04:58:53.760Z,20.94
2017-03-22T04:59:54.084Z,20.94
2017-03-22T05:00:54.425Z,21.04
2017-03-22T05:01:54.133Z,20.99
2017-03-22T05:02:54.725Z,20.99
2017-03-22T05:03:54.191Z,20.95
2017-03-22T05:04:54.527Z,20.92
2017-03-22T05:05:54.559Z,20.94
2017-03-22T05:06:54.587Z,20.99
2017-03-22T05:07:54.857Z,20.89
2017-03-22T05:08:54.327Z,20.92
2017-03-22T05:09:54.665Z,20.98
2017-03-22T05:10:54.688Z,20.95
2017-03-22T05:11:54.713Z,20.98
2017-03-22T05:12:54.741Z,20.99
2017-03-22T05:13:54.771Z,20.91
2017-03-22T05:14:54.795Z,20.94
2017-03-22T05:15:54.815Z,21.01
2017-03-22T05:16:54.836Z,20.91
2017-03-22T05:17:54.873Z,20.97
2017-03-22T05:18:54.902Z,20.97
2017-03-22T05:19:54.918Z,20.94
2017-03-22T05:20:54.946Z,20.92
2017-03-22T05:21:54.976Z,21.01
2017-03-22T05:22:55.025Z,21.06
2017-03-22T05:23:55.034Z,20.98
2017-03-22T05:24:54.482Z,20.98
2017-03-22T05:25:55.088Z,21.1
2017-03-22T05:26:55.114Z,20.97
2017-03-22T05:27:55.144Z,20.95
2017-03-22T05:28:54.846Z,21.07
2017-03-22T05:29:54.886Z,21.03
2017-03-22T05:30:55.223Z,21.03
2017-03-22T05:31:55.240Z,21.1
2017-03-22T05:32:55.272Z,21.07
2017-03-22T05:33:55.549Z,21.09
2017-03-22T05:34:55.321Z,21.07
2017-03-22T05:35:55.030Z,21.16
2017-03-22T05:36:55.388Z,21.1
2017-03-22T05:37:55.092Z,21.13
2017-03-22T05:38:55.369Z,21.17
2017-03-22T05:39:55.468Z,21.1
2017-03-22T05:40:54.851Z,21.17
2017-03-22T05:41:55.196Z,21.24
2017-03-22T05:42:55.544Z,21.22
2017-03-22T05:43:55.813Z,21.21
2017-03-22T05:44:55.282Z,21.21
2017-03-22T05:45:55.302Z,21.25
2017-03-22T05:46:55.648Z,21.28
2017-03-22T05:47:55.667Z,21.22
2017-03-22T05:48:55.641Z,21.31
2017-03-22T05:49:55.721Z,21.35
2017-03-22T05:50:55.753Z,21.37
2017-03-22T05:51:55.762Z,21.34
2017-03-22T05:52:55.799Z,21.34
2017-03-22T05:53:56.083Z,21.38
2017-03-22T05:54:55.546Z,21.32
2017-03-22T05:55:55.875Z,21.37
2017-03-22T05:56:55.595Z,21.35
2017-03-22T05:57:55.623Z,21.4
2017-03-22T05:58:55.906Z,21.47
2017-03-22T05:59:55.981Z,21.37
2017-03-22T06:00:56.017Z,21.5
2017-03-22T06:01:55.714Z,21.43
2017-03-22T06:02:55.759Z,21.44
2017-03-22T06:03:56.355Z,21.5
2017-03-22T06:04:56.135Z,21.49
2017-03-22T06:05:56.145Z,21.47
2017-03-22T06:06:55.864Z,21.53
2017-03-22T06:07:56.198Z,21.58
2017-03-22T06:08:56.178Z,21.58
2017-03-22T06:09:56.264Z,21.58
2017-03-22T06:10:56.293Z,21.54
2017-03-22T06:11:55.993Z,21.58
2017-03-22T06:12:56.326Z,21.59
2017-03-22T06:13:56.611Z,21.58
2017-03-22T06:14:56.400Z,21.65
2017-03-22T06:15:56.100Z,21.54
2017-03-22T06:16:56.122Z,21.52
2017-03-22T06:17:56.168Z,21.65
2017-03-22T06:18:56.742Z,21.67
2017-03-22T06:19:56.523Z,21.67
2017-03-22T06:20:56.545Z,21.64
2017-03-22T06:21:56.572Z,21.64
2017-03-22T06:22:56.289Z,21.67
2017-03-22T06:23:56.882Z,21.71
2017-03-22T06:24:56.659Z,21.69
2017-03-22T06:25:56.680Z,21.72
2017-03-22T06:26:56.085Z,21.68
2017-03-22T06:27:56.742Z,21.71
2017-03-22T06:28:56.139Z,21.79
2017-03-22T06:29:56.791Z,21.79
2017-03-22T06:30:56.811Z,21.88
2017-03-22T06:31:56.853Z,21.77
2017-03-22T06:32:56.558Z,21.8
2017-03-22T06:33:56.898Z,21.77
2017-03-22T06:34:56.603Z,21.9
2017-03-22T06:35:56.635Z,21.79
2017-03-22T06:36:56.664Z,21.9
2017-03-22T06:37:56.387Z,21.75
2017-03-22T06:38:56.712Z,21.86
2017-03-22T06:39:57.055Z,21.83
2017-03-22T06:40:57.098Z,21.83
2017-03-22T06:41:57.104Z,21.82
2017-03-22T06:42:56.821Z,21.79
2017-03-22T06:43:57.168Z,21.84
2017-03-22T06:44:57.195Z,21.96
2017-03-22T06:45:56.893Z,21.9
2017-03-22T06:46:56.932Z,21.91
2017-03-22T06:47:56.952Z,21.94
2017-03-22T06:48:56.995Z,21.94
2017-03-22T06:49:57.323Z,22.05
2017-03-22T06:50:57.351Z,22.03
2017-03-22T06:51:57.375Z,22
2017-03-22T06:52:57.415Z,22.12
2017-03-22T06:53:57.437Z,22.12
2017-03-22T06:54:57.146Z,22.02
2017-03-22T06:55:57.478Z,21.99
2017-03-22T06:56:57.528Z,22.1
2017-03-22T06:57:57.231Z,22.06
2017-03-22T06:58:57.566Z,22.07
2017-03-22T06:59:57.602Z,22.03
2017-03-22T07:00:57.614Z,22.17
2017-03-22T07:01:57.644Z,22.07
2017-03-22T07:02:57.731Z,22.1
2017-03-22T07:03:57.700Z,22.14
2017-03-22T07:04:57.734Z,22.1
2017-03-22T07:05:57.756Z,22.21
2017-03-22T07:06:57.777Z,22.12
2017-03-22T07:07:57.816Z,22.17
2017-03-22T07:08:57.838Z,22.18
2017-03-22T07:09:58.146Z,22.2
2017-03-22T07:10:57.885Z,22.25
2017-03-22T07:11:57.931Z,22.22
2017-03-22T07:12:57.944Z,22.21
2017-03-22T07:13:57.656Z,22.27
2017-03-22T07:14:58.249Z,22.27
2017-03-22T07:15:58.026Z,22.24
2017-03-22T07:16:57.750Z,22.28
2017-03-22T07:17:58.079Z,22.24
2017-03-22T07:18:58.122Z,22.24
2017-03-22T07:19:58.383Z,22.27
2017-03-22T07:20:57.847Z,22.25
2017-03-22T07:21:58.407Z,22.27
2017-03-22T07:22:58.215Z,22.27
2017-03-22T07:23:58.253Z,22.24
2017-03-22T07:24:58.212Z,22.28
2017-03-22T07:25:58.324Z,22.25
2017-03-22T07:26:58.317Z,22.37
2017-03-22T07:27:58.363Z,22.28
2017-03-22T07:28:58.379Z,22.28
2017-03-22T07:29:58.665Z,22.31
2017-03-22T07:30:58.427Z,22.24
2017-03-22T07:31:58.138Z,22.27
2017-03-22T07:32:58.494Z,22.24
2017-03-22T07:33:58.518Z,22.28
2017-03-22T07:34:58.785Z,22.27
2017-03-22T07:35:58.251Z,22.31
2017-03-22T07:36:58.581Z,22.25
2017-03-22T07:37:58.624Z,22.27
2017-03-22T07:38:58.343Z,22.28
2017-03-22T07:39:58.928Z,22.28
2017-03-22T07:40:58.700Z,22.3
2017-03-22T07:41:58.729Z,22.28
2017-03-22T07:42:58.754Z,22.27
2017-03-22T07:43:58.787Z,22.24
2017-03-22T07:44:58.743Z,22.35
2017-03-22T07:45:58.836Z,22.27
2017-03-22T07:46:58.561Z,22.28
2017-03-22T07:47:58.891Z,22.27
2017-03-22T07:48:58.927Z,22.31
2017-03-22T07:49:59.198Z,22.24
2017-03-22T07:50:58.971Z,22.24
2017-03-22T07:51:58.688Z,22.28
2017-03-22T07:52:59.033Z,22.24
2017-03-22T07:53:59.055Z,22.22
2017-03-22T07:54:59.027Z,22.3
2017-03-22T07:55:59.111Z,22.22
2017-03-22T07:56:59.133Z,22.31
2017-03-22T07:57:59.188Z,22.22
2017-03-22T07:58:59.202Z,22.24
2017-03-22T07:59:59.478Z,22.28
2017-03-22T08:00:59.247Z,22.25
2017-03-22T08:01:59.267Z,22.21
2017-03-22T08:02:58.980Z,22.21
2017-03-22T08:03:59.326Z,22.21
2017-03-22T08:04:59.297Z,22.18
2017-03-22T08:05:59.378Z,22.24
2017-03-22T08:06:59.096Z,22.28
2017-03-22T08:07:59.122Z,22.25
2017-03-22T08:08:59.154Z,22.18
2017-03-22T08:09:59.741Z,22.22
2017-03-22T08:10:59.514Z,22.18
2017-03-22T08:11:59.551Z,22.22
2017-03-22T08:12:59.252Z,22.17
2017-03-22T08:13:59.293Z,22.15
2017-03-22T08:14:59.877Z,22.14
2017-03-22T08:15:59.338Z,22.18
2017-03-22T08:16:59.676Z,22.1
2017-03-22T08:17:59.396Z,22.14
2017-03-22T08:18:59.737Z,22.1
2017-03-22T08:19:59.764Z,22.09
2017-03-22T08:20:59.478Z,22.15
2017-03-22T08:21:59.807Z,22.2
2017-03-22T08:22:59.852Z,22.12
2017-03-22T08:23:59.865Z,22.15
2017-03-22T08:24:59.898Z,22.09
2017-03-22T08:25:59.937Z,22.14
2017-03-22T08:26:59.954Z,22.15
2017-03-22T08:27:59.670Z,22.12
2017-03-22T08:29:00.003Z,22.15
2017-03-22T08:30:00.032Z,22.09
2017-03-22T08:31:00.062Z,22.12
2017-03-22T08:32:00.094Z,22.15
2017-03-22T08:33:00.121Z,22.12
2017-03-22T08:33:59.830Z,22.1
2017-03-22T08:35:00.165Z,22.17
2017-03-22T08:36:00.197Z,22.14
2017-03-22T08:37:00.225Z,22.14
2017-03-22T08:38:00.252Z,22.1
2017-03-22T08:39:00.276Z,22.14
2017-03-22T08:40:00.312Z,22.09
2017-03-22T08:41:00.334Z,22.14
2017-03-22T08:41:59.733Z,22.06
2017-03-22T08:43:00.397Z,22.09
2017-03-22T08:44:00.415Z,22.1
2017-03-22T08:45:00.138Z,22.17
2017-03-22T08:46:00.472Z,22.15
2017-03-22T08:47:00.494Z,22.09
2017-03-22T08:48:00.527Z,22.07
2017-03-22T08:49:00.551Z,22.12
2017-03-22T08:50:00.584Z,22.05
2017-03-22T08:51:00.618Z,22
2017-03-22T08:52:00.632Z,22.09
2017-03-22T08:53:00.354Z,22.07
2017-03-22T08:54:00.682Z,22.06
2017-03-22T08:55:00.711Z,22.06
2017-03-22T08:56:00.740Z,22.06
2017-03-22T08:57:00.461Z,22
2017-03-22T08:58:00.793Z,22.02
2017-03-22T08:59:00.843Z,22.02
2017-03-22T09:00:00.544Z,22.06
2017-03-22T09:01:00.875Z,21.99
2017-03-22T09:02:00.598Z,22
2017-03-22T09:03:00.620Z,22.05
2017-03-22T09:04:00.960Z,22.05
2017-03-22T09:05:00.991Z,21.98
2017-03-22T09:06:00.732Z,22.03
2017-03-22T09:07:00.725Z,21.88
2017-03-22T09:08:01.077Z,22
2017-03-22T09:09:00.774Z,22.06
2017-03-22T09:10:01.122Z,21.96
2017-03-22T09:11:01.404Z,22.02
2017-03-22T09:12:00.869Z,22.02
2017-03-22T09:13:00.905Z,22
2017-03-22T09:14:01.226Z,22.02
2017-03-22T09:15:01.258Z,22
2017-03-22T09:16:01.542Z,22.03
2017-03-22T09:17:01.317Z,22
2017-03-22T09:18:01.021Z,22
2017-03-22T09:19:01.375Z,21.98
2017-03-22T09:20:01.079Z,21.92
2017-03-22T09:21:01.676Z,21.9
2017-03-22T09:22:01.453Z,22
2017-03-22T09:23:01.480Z,21.84
2017-03-22T09:24:01.494Z,21.9
2017-03-22T09:25:01.534Z,21.91
2017-03-22T09:26:01.816Z,21.91
2017-03-22T09:27:00.964Z,21.91
2017-03-22T09:28:01.608Z,21.91
2017-03-22T09:29:01.633Z,21.88
2017-03-22T09:30:01.360Z,21.91
2017-03-22T09:31:01.952Z,21.92
2017-03-22T09:32:01.724Z,21.9
2017-03-22T09:33:01.744Z,21.9
2017-03-22T09:34:01.472Z,21.91
2017-03-22T09:35:01.805Z,21.94
2017-03-22T09:36:02.079Z,21.91
2017-03-22T09:37:01.572Z,21.88
2017-03-22T09:38:01.580Z,21.98
2017-03-22T09:39:01.917Z,21.86
2017-03-22T09:40:01.313Z,21.98
2017-03-22T09:41:02.214Z,21.94
2017-03-22T09:42:02.004Z,21.91
2017-03-22T09:43:01.712Z,21.86
2017-03-22T09:44:02.048Z,21.8
2017-03-22T09:45:01.767Z,21.91
2017-03-22T09:46:02.353Z,21.84
2017-03-22T09:47:02.138Z,21.79
2017-03-22T09:48:01.852Z,21.92
2017-03-22T09:49:02.184Z,21.83
2017-03-22T09:50:01.898Z,21.82
2017-03-22T09:51:01.871Z,21.84
2017-03-22T09:52:02.266Z,21.83
2017-03-22T09:53:02.288Z,21.8
2017-03-22T09:54:02.315Z,21.77
2017-03-22T09:55:02.029Z,21.84
2017-03-22T09:56:02.624Z,21.91
2017-03-22T09:57:02.091Z,21.82
2017-03-22T09:58:02.431Z,21.88
2017-03-22T09:59:02.468Z,21.88
2017-03-22T10:00:02.490Z,21.86
2017-03-22T10:01:02.765Z,21.83
2017-03-22T10:02:02.539Z,21.74
2017-03-22T10:03:02.570Z,21.84
2017-03-22T10:04:02.592Z,21.86
2017-03-22T10:05:02.310Z,21.9
2017-03-22T10:06:02.593Z,21.91
2017-03-22T10:07:02.364Z,21.92
2017-03-22T10:08:02.075Z,21.88
2017-03-22T10:09:02.726Z,21.83
2017-03-22T10:10:02.439Z,21.91
2017-03-22T10:11:03.033Z,21.8
2017-03-22T10:12:02.810Z,21.77
2017-03-22T10:13:02.835Z,21.8
2017-03-22T10:14:02.552Z,21.83
2017-03-22T10:15:02.887Z,21.86
2017-03-22T10:16:03.178Z,21.77
2017-03-22T10:17:02.946Z,21.75
2017-03-22T10:18:03.004Z,21.77
2017-03-22T10:19:02.999Z,21.75
2017-03-22T10:20:03.019Z,21.75
2017-03-22T10:21:02.740Z,21.8
2017-03-22T10:22:03.081Z,21.75
2017-03-22T10:23:03.114Z,21.75
2017-03-22T10:24:02.826Z,21.79
2017-03-22T10:25:03.155Z,21.72
2017-03-22T10:26:03.192Z,21.83
2017-03-22T10:27:03.211Z,21.8
2017-03-22T10:28:03.249Z,21.8
2017-03-22T10:29:03.290Z,21.72
2017-03-22T10:30:03.295Z,21.8
2017-03-22T10:31:03.003Z,21.71
2017-03-22T10:32:03.357Z,21.75
2017-03-22T10:33:03.072Z,21.8
2017-03-22T10:34:03.094Z,21.69
2017-03-22T10:35:03.436Z,21.68
2017-03-22T10:36:03.467Z,21.79
2017-03-22T10:37:03.176Z,21.8
2017-03-22T10:38:03.509Z,21.77
2017-03-22T10:39:02.917Z,21.75
2017-03-22T10:40:03.246Z,21.68
2017-03-22T10:41:03.586Z,21.71
2017-03-22T10:42:03.000Z,21.74
2017-03-22T10:43:03.648Z,21.75
2017-03-22T10:44:03.683Z,21.71
2017-03-22T10:45:03.391Z,21.69
2017-03-22T10:46:03.423Z,21.68
2017-03-22T10:47:03.761Z,21.72
2017-03-22T10:48:03.788Z,21.74
2017-03-22T10:49:03.814Z,21.79
2017-03-22T10:50:03.530Z,21.75
2017-03-22T10:51:03.555Z,21.77
2017-03-22T10:52:03.895Z,21.74
2017-03-22T10:53:03.916Z,21.67
2017-03-22T10:54:03.948Z,21.75
2017-03-22T10:55:03.977Z,21.71
2017-03-22T10:56:03.684Z,21.65
2017-03-22T10:57:04.030Z,21.75
2017-03-22T10:58:04.065Z,21.72
2017-03-22T10:59:04.083Z,21.74
2017-03-22T11:00:04.112Z,21.8
2017-03-22T11:01:04.134Z,21.72
2017-03-22T11:02:03.854Z,21.8
2017-03-22T11:03:04.205Z,21.67
2017-03-22T11:04:04.228Z,21.67
2017-03-22T11:05:03.932Z,21.72
2017-03-22T11:06:04.268Z,21.71
2017-03-22T11:07:04.294Z,21.71
2017-03-22T11:08:04.031Z,21.72
2017-03-22T11:09:04.047Z,21.69
2017-03-22T11:10:04.068Z,21.75
2017-03-22T11:11:04.414Z,21.74
2017-03-22T11:12:04.120Z,21.72
2017-03-22T11:13:04.158Z,21.71
2017-03-22T11:14:04.492Z,21.71
2017-03-22T11:15:04.516Z,21.72
2017-03-22T11:16:04.225Z,21.71
2017-03-22T11:17:04.823Z,21.62
2017-03-22T11:18:04.599Z,21.69
2017-03-22T11:19:04.310Z,21.71
2017-03-22T11:20:04.340Z,21.67
2017-03-22T11:21:04.366Z,21.72
2017-03-22T11:22:04.960Z,21.72
2017-03-22T11:23:04.733Z,21.68
2017-03-22T11:24:04.763Z,21.67
2017-03-22T11:25:04.475Z,21.65
2017-03-22T11:26:04.503Z,21.71
2017-03-22T11:27:04.790Z,21.72
2017-03-22T11:28:04.874Z,21.68
2017-03-22T11:29:04.582Z,21.67
2017-03-22T11:30:04.924Z,21.69
2017-03-22T11:31:04.943Z,21.68
2017-03-22T11:32:04.922Z,21.67
2017-03-22T11:33:04.689Z,21.67
2017-03-22T11:34:05.048Z,21.67
2017-03-22T11:35:04.750Z,21.71
2017-03-22T11:36:05.087Z,21.68
2017-03-22T11:37:05.356Z,21.71
2017-03-22T11:38:04.514Z,21.67
2017-03-22T11:39:05.166Z,21.69
2017-03-22T11:40:05.200Z,21.62
2017-03-22T11:41:04.589Z,21.69
2017-03-22T11:42:05.195Z,21.69
2017-03-22T11:43:05.268Z,21.71
2017-03-22T11:44:05.297Z,21.68
2017-03-22T11:45:05.337Z,21.68
2017-03-22T11:46:05.050Z,21.69
2017-03-22T11:47:05.639Z,21.71
2017-03-22T11:48:05.409Z,21.72
2017-03-22T11:49:05.126Z,21.68
2017-03-22T11:50:05.476Z,21.65
2017-03-22T11:51:05.490Z,21.71
2017-03-22T11:52:05.780Z,21.62
2017-03-22T11:53:05.540Z,21.62
2017-03-22T11:54:05.265Z,21.72
2017-03-22T11:55:05.597Z,21.68
2017-03-22T11:56:05.633Z,21.71
2017-03-22T11:57:05.902Z,21.71
2017-03-22T11:58:05.672Z,21.69
2017-03-22T11:59:05.085Z,21.67
2017-03-22T12:00:05.736Z,21.67
2017-03-22T12:01:05.458Z,21.68
2017-03-22T12:02:05.474Z,21.67
2017-03-22T12:03:05.808Z,21.65
2017-03-22T12:04:05.844Z,21.69
2017-03-22T12:05:05.865Z,21.62
2017-03-22T12:06:05.906Z,21.59
2017-03-22T12:07:05.915Z,21.56
2017-03-22T12:08:05.639Z,21.68
2017-03-22T12:09:05.976Z,21.53
2017-03-22T12:10:06.009Z,21.62
2017-03-22T12:11:06.026Z,21.68
2017-03-22T12:12:06.066Z,21.61
2017-03-22T12:13:05.771Z,21.64
2017-03-22T12:14:05.800Z,21.58
2017-03-22T12:15:06.175Z,21.56
2017-03-22T12:16:05.858Z,21.56
2017-03-22T12:17:05.882Z,21.59
2017-03-22T12:18:05.910Z,21.67
2017-03-22T12:19:06.248Z,21.61
2017-03-22T12:20:06.275Z,21.65
2017-03-22T12:21:06.302Z,21.54
2017-03-22T12:22:06.329Z,21.68
2017-03-22T12:23:06.050Z,21.68
2017-03-22T12:24:06.062Z,21.58
2017-03-22T12:25:06.410Z,21.53
2017-03-22T12:26:06.120Z,21.59
2017-03-22T12:27:06.154Z,21.68
2017-03-22T12:28:06.485Z,21.61
2017-03-22T12:29:06.523Z,21.68
2017-03-22T12:30:06.247Z,21.62
2017-03-22T12:31:06.269Z,21.68
2017-03-22T12:32:06.285Z,21.56
2017-03-22T12:33:06.313Z,21.65
2017-03-22T12:34:06.668Z,21.68
2017-03-22T12:35:06.675Z,21.56
2017-03-22T12:36:06.396Z,21.61
2017-03-22T12:37:06.737Z,21.69
2017-03-22T12:38:06.760Z,21.53
2017-03-22T12:39:06.163Z,21.56
2017-03-22T12:40:06.506Z,21.52
2017-03-22T12:41:06.538Z,21.68
2017-03-22T12:42:06.868Z,21.67
2017-03-22T12:43:06.896Z,21.67
2017-03-22T12:44:06.921Z,21.69
2017-03-22T12:45:06.639Z,21.65
2017-03-22T12:46:06.979Z,21.68
2017-03-22T12:47:07.004Z,21.75
2017-03-22T12:48:06.716Z,21.67
2017-03-22T12:49:07.054Z,21.69
2017-03-22T12:50:06.466Z,21.71
2017-03-22T12:51:07.115Z,21.69
2017-03-22T12:52:06.823Z,21.74
2017-03-22T12:53:07.421Z,21.75
2017-03-22T12:54:07.189Z,21.79
2017-03-22T12:55:07.234Z,21.74
2017-03-22T12:56:07.251Z,21.74
2017-03-22T12:57:07.276Z,21.79
2017-03-22T12:58:07.577Z,21.84
2017-03-22T12:59:07.020Z,21.74
2017-03-22T13:00:07.363Z,21.86
2017-03-22T13:01:07.070Z,21.83